sensor_id;sensor_type;location;lat;lon;timestamp;pressure;altitude;pressure_sealevel;temperature;humidity
30216;BME280;17028;47.642;8.070;2022-10-31T00:03:06;94190.78;;;14.11;55.68
30216;BME280;17028;47.642;8.070;2022-10-31T00:08:07;94183.44;;;14.14;55.61
30216;BME280;17028;47.642;8.070;2022-10-31T00:13:08;94182.03;;;14.09;55.64
30216;BME280;17028;47.642;8.070;2022-10-31T00:18:10;94179.41;;;14.06;55.83
30216;BME280;17028;47.642;8.070;2022-10-31T00:23:11;94186.91;;;13.99;56.08
30216;BME280;17028;47.642;8.070;2022-10-31T00:28:12;94185.81;;;13.97;56.35
30216;BME280;17028;47.642;8.070;2022-10-31T00:33:13;94184.56;;;13.98;56.22
30216;BME280;17028;47.642;8.070;2022-10-31T00:38:14;94185.97;;;13.93;56.44
30216;BME280;17028;47.642;8.070;2022-10-31T00:43:15;94181.75;;;13.89;56.74
30216;BME280;17028;47.642;8.070;2022-10-31T00:48:17;94182.38;;;13.83;56.92
30216;BME280;17028;47.642;8.070;2022-10-31T00:53:18;94181.44;;;13.77;57.21
30216;BME280;17028;47.642;8.070;2022-10-31T00:58:19;94172.13;;;13.71;57.45
30216;BME280;17028;47.642;8.070;2022-10-31T01:03:25;94174.59;;;13.69;57.33
30216;BME280;17028;47.642;8.070;2022-10-31T01:08:27;94173.84;;;13.68;57.34
30216;BME280;17028;47.642;8.070;2022-10-31T01:13:29;94170.72;;;13.66;57.58
30216;BME280;17028;47.642;8.070;2022-10-31T01:18:30;94168.53;;;13.61;57.78
30216;BME280;17028;47.642;8.070;2022-10-31T01:23:32;94171.81;;;13.60;57.78
30216;BME280;17028;47.642;8.070;2022-10-31T01:28:34;94169.47;;;13.58;58.01
30216;BME280;17028;47.642;8.070;2022-10-31T01:33:36;94163.25;;;13.54;57.99
30216;BME280;17028;47.642;8.070;2022-10-31T01:38:37;94158.59;;;13.51;58.12
30216;BME280;17028;47.642;8.070;2022-10-31T01:43:43;94161.81;;;13.49;58.09
30216;BME280;17028;47.642;8.070;2022-10-31T01:48:44;94159.50;;;13.48;58.07
30216;BME280;17028;47.642;8.070;2022-10-31T01:53:46;94152.38;;;13.47;58.02
30216;BME280;17028;47.642;8.070;2022-10-31T01:58:47;94153.44;;;13.40;58.40
30216;BME280;17028;47.642;8.070;2022-10-31T02:03:51;94147.38;;;13.42;58.51
30216;BME280;17028;47.642;8.070;2022-10-31T02:08:56;94134.00;;;13.36;58.46
30216;BME280;17028;47.642;8.070;2022-10-31T02:14:00;94140.47;;;13.33;58.73
30216;BME280;17028;47.642;8.070;2022-10-31T02:19:03;94131.00;;;13.31;58.54
30216;BME280;17028;47.642;8.070;2022-10-31T02:24:46;94130.53;;;13.32;58.42
30216;BME280;17028;47.642;8.070;2022-10-31T02:30:10;94130.06;;;13.34;58.19
30216;BME280;17028;47.642;8.070;2022-10-31T02:40:48;94120.28;;;13.39;57.99
30216;BME280;17028;47.642;8.070;2022-10-31T02:46:21;94116.38;;;13.36;58.19
30216;BME280;17028;47.642;8.070;2022-10-31T02:51:25;94119.19;;;13.36;58.23
30216;BME280;17028;47.642;8.070;2022-10-31T02:56:26;94116.06;;;13.34;58.26
30216;BME280;17028;47.642;8.070;2022-10-31T03:01:45;94105.81;;;13.31;58.25
30216;BME280;17028;47.642;8.070;2022-10-31T03:12:06;94112.19;;;13.41;58.37
30216;BME280;17028;47.642;8.070;2022-10-31T03:17:14;94111.44;;;13.40;58.26
30216;BME280;17028;47.642;8.070;2022-10-31T03:22:25;94108.94;;;13.42;58.36
30216;BME280;17028;47.642;8.070;2022-10-31T03:27:31;94113.16;;;13.47;58.29
30216;BME280;17028;47.642;8.070;2022-10-31T03:32:41;94117.81;;;13.50;58.30
30216;BME280;17028;47.642;8.070;2022-10-31T03:37:45;94107.06;;;13.48;58.24
30216;BME280;17028;47.642;8.070;2022-10-31T03:42:56;94111.88;;;13.48;58.34
30216;BME280;17028;47.642;8.070;2022-10-31T03:47:59;94110.34;;;13.47;58.30
30216;BME280;17028;47.642;8.070;2022-10-31T03:53:04;94110.78;;;13.45;58.50
30216;BME280;17028;47.642;8.070;2022-10-31T03:58:10;94098.50;;;13.43;58.42
30216;BME280;17028;47.642;8.070;2022-10-31T04:03:16;94098.19;;;13.41;58.56
30216;BME280;17028;47.642;8.070;2022-10-31T04:08:24;94109.06;;;13.48;58.55
30216;BME280;17028;47.642;8.070;2022-10-31T04:13:29;94102.25;;;13.49;58.77
30216;BME280;17028;47.642;8.070;2022-10-31T04:18:37;94098.03;;;13.53;59.00
30216;BME280;17028;47.642;8.070;2022-10-31T04:23:38;94102.38;;;13.64;58.91
30216;BME280;17028;47.642;8.070;2022-10-31T04:28:48;94092.44;;;13.72;58.83
30216;BME280;17028;47.642;8.070;2022-10-31T04:33:49;94087.88;;;13.75;58.74
30216;BME280;17028;47.642;8.070;2022-10-31T04:38:50;94089.44;;;13.76;58.69
30216;BME280;17028;47.642;8.070;2022-10-31T04:44:06;94085.88;;;13.66;58.96
30216;BME280;17028;47.642;8.070;2022-10-31T04:49:07;94080.91;;;13.70;58.94
30216;BME280;17028;47.642;8.070;2022-10-31T04:54:09;94084.78;;;13.63;58.68
30216;BME280;17028;47.642;8.070;2022-10-31T04:59:16;94080.78;;;13.46;59.15
30216;BME280;17028;47.642;8.070;2022-10-31T05:04:25;94080.28;;;13.29;59.39
30216;BME280;17028;47.642;8.070;2022-10-31T05:09:26;94072.63;;;13.20;59.60
30216;BME280;17028;47.642;8.070;2022-10-31T05:14:27;94073.91;;;13.19;59.95
30216;BME280;17028;47.642;8.070;2022-10-31T05:19:51;94066.13;;;13.23;60.01
30216;BME280;17028;47.642;8.070;2022-10-31T05:25:16;94058.81;;;13.26;59.98
30216;BME280;17028;47.642;8.070;2022-10-31T05:30:21;94061.44;;;13.20;59.84
30216;BME280;17028;47.642;8.070;2022-10-31T05:35:25;94057.53;;;13.08;60.15
30216;BME280;17028;47.642;8.070;2022-10-31T05:40:45;94051.03;;;12.93;60.49
30216;BME280;17028;47.642;8.070;2022-10-31T05:45:47;94054.75;;;12.80;60.89
30216;BME280;17028;47.642;8.070;2022-10-31T05:51:12;94043.22;;;12.69;61.07
30216;BME280;17028;47.642;8.070;2022-10-31T05:56:13;94041.81;;;12.64;61.20
30216;BME280;17028;47.642;8.070;2022-10-31T06:01:14;94034.94;;;12.56;61.53
30216;BME280;17028;47.642;8.070;2022-10-31T06:06:18;94036.81;;;12.50;61.84
30216;BME280;17028;47.642;8.070;2022-10-31T06:11:20;94038.06;;;12.49;61.93
30216;BME280;17028;47.642;8.070;2022-10-31T06:16:36;94033.84;;;12.53;61.82
30216;BME280;17028;47.642;8.070;2022-10-31T06:21:57;94035.75;;;12.57;61.83
30216;BME280;17028;47.642;8.070;2022-10-31T06:26:58;94040.41;;;12.60;61.71
30216;BME280;17028;47.642;8.070;2022-10-31T06:32:00;94036.22;;;12.64;61.89
30216;BME280;17028;47.642;8.070;2022-10-31T06:37:02;94044.78;;;12.70;61.84
30216;BME280;17028;47.642;8.070;2022-10-31T06:42:05;94030.19;;;12.75;62.15
30216;BME280;17028;47.642;8.070;2022-10-31T06:47:07;94045.09;;;12.81;62.13
30216;BME280;17028;47.642;8.070;2022-10-31T06:52:27;94046.81;;;12.88;62.07
30216;BME280;17028;47.642;8.070;2022-10-31T06:57:28;94047.00;;;12.94;62.30
30216;BME280;17028;47.642;8.070;2022-10-31T07:02:30;94045.91;;;13.00;62.34
30216;BME280;17028;47.642;8.070;2022-10-31T07:07:31;94047.44;;;13.01;62.81
30216;BME280;17028;47.642;8.070;2022-10-31T07:12:32;94045.44;;;13.02;62.92
30216;BME280;17028;47.642;8.070;2022-10-31T07:17:34;94054.75;;;13.08;62.83
30216;BME280;17028;47.642;8.070;2022-10-31T07:22:36;94052.75;;;13.18;62.83
30216;BME280;17028;47.642;8.070;2022-10-31T07:27:41;94059.91;;;13.28;63.02
30216;BME280;17028;47.642;8.070;2022-10-31T07:32:45;94063.31;;;13.32;64.79
30216;BME280;17028;47.642;8.070;2022-10-31T07:37:48;94073.13;;;13.46;64.63
30216;BME280;17028;47.642;8.070;2022-10-31T07:42:52;94084.47;;;13.61;64.32
30216;BME280;17028;47.642;8.070;2022-10-31T07:48:18;94073.25;;;13.80;64.18
30216;BME280;17028;47.642;8.070;2022-10-31T07:53:42;94074.91;;;13.96;64.43
30216;BME280;17028;47.642;8.070;2022-10-31T07:58:49;94079.69;;;14.14;64.44
30216;BME280;17028;47.642;8.070;2022-10-31T08:03:50;94078.56;;;14.30;64.28
30216;BME280;17028;47.642;8.070;2022-10-31T08:09:10;94074.16;;;14.38;64.92
30216;BME280;17028;47.642;8.070;2022-10-31T08:14:11;94081.44;;;14.45;64.57
30216;BME280;17028;47.642;8.070;2022-10-31T08:19:13;94084.84;;;14.49;63.70
30216;BME280;17028;47.642;8.070;2022-10-31T08:24:14;94078.91;;;14.56;63.68
30216;BME280;17028;47.642;8.070;2022-10-31T08:29:15;94081.38;;;14.63;63.15
30216;BME280;17028;47.642;8.070;2022-10-31T08:34:17;94076.53;;;14.73;62.85
30216;BME280;17028;47.642;8.070;2022-10-31T08:39:41;94069.09;;;14.85;62.74
30216;BME280;17028;47.642;8.070;2022-10-31T08:44:42;94070.13;;;14.97;62.65
30216;BME280;17028;47.642;8.070;2022-10-31T08:49:43;94078.78;;;15.08;62.73
30216;BME280;17028;47.642;8.070;2022-10-31T08:54:44;94075.59;;;15.15;62.03
30216;BME280;17028;47.642;8.070;2022-10-31T09:00:11;94073.88;;;15.18;61.77
30216;BME280;17028;47.642;8.070;2022-10-31T09:05:32;94068.09;;;15.22;64.11
30216;BME280;17028;47.642;8.070;2022-10-31T09:10:35;94063.63;;;15.30;65.23
30216;BME280;17028;47.642;8.070;2022-10-31T09:15:39;94065.50;;;15.33;67.62
30216;BME280;17028;47.642;8.070;2022-10-31T09:20:54;94062.00;;;15.38;68.14
30216;BME280;17028;47.642;8.070;2022-10-31T09:25:59;94042.56;;;15.49;67.90
30216;BME280;17028;47.642;8.070;2022-10-31T09:31:27;94046.84;;;15.60;68.15
30216;BME280;17028;47.642;8.070;2022-10-31T09:36:38;94031.16;;;15.68;68.23
30216;BME280;17028;47.642;8.070;2022-10-31T09:52:26;94032.72;;;15.99;67.40
30216;BME280;17028;47.642;8.070;2022-10-31T09:57:32;94032.72;;;16.14;66.87
30216;BME280;17028;47.642;8.070;2022-10-31T10:02:41;94031.66;;;16.26;64.80
30216;BME280;17028;47.642;8.070;2022-10-31T10:08:07;94035.69;;;16.40;63.56
30216;BME280;17028;47.642;8.070;2022-10-31T10:19:17;94027.94;;;16.35;67.42
30216;BME280;17028;47.642;8.070;2022-10-31T10:24:44;94022.41;;;16.26;67.24
30216;BME280;17028;47.642;8.070;2022-10-31T10:30:04;94014.97;;;16.23;67.52
30216;BME280;17028;47.642;8.070;2022-10-31T10:35:20;94020.81;;;16.04;67.63
30216;BME280;17028;47.642;8.070;2022-10-31T10:40:24;94013.81;;;15.84;68.80
30216;BME280;17028;47.642;8.070;2022-10-31T10:45:28;94020.88;;;15.65;69.78
30216;BME280;17028;47.642;8.070;2022-10-31T10:50:48;94036.72;;;15.38;70.38
30216;BME280;17028;47.642;8.070;2022-10-31T10:56:00;94039.91;;;15.31;70.19
30216;BME280;17028;47.642;8.070;2022-10-31T11:01:12;94022.41;;;15.36;70.37
30216;BME280;17028;47.642;8.070;2022-10-31T11:06:18;94016.31;;;15.52;70.19
30216;BME280;17028;47.642;8.070;2022-10-31T11:11:27;94027.31;;;15.80;69.87
30216;BME280;17028;47.642;8.070;2022-10-31T11:16:41;94029.03;;;16.08;70.11
30216;BME280;17028;47.642;8.070;2022-10-31T11:21:43;94021.53;;;16.34;69.73
30216;BME280;17028;47.642;8.070;2022-10-31T11:26:48;94004.28;;;16.62;68.96
30216;BME280;17028;47.642;8.070;2022-10-31T11:31:57;94001.34;;;16.92;68.95
30216;BME280;17028;47.642;8.070;2022-10-31T11:37:24;93994.94;;;17.33;67.17
30216;BME280;17028;47.642;8.070;2022-10-31T11:42:29;93975.28;;;17.65;63.44
30216;BME280;17028;47.642;8.070;2022-10-31T11:47:35;93977.13;;;18.00;61.96
30216;BME280;17028;47.642;8.070;2022-10-31T11:52:39;93969.44;;;18.32;60.08
30216;BME280;17028;47.642;8.070;2022-10-31T11:57:49;93970.34;;;18.61;58.21
30216;BME280;17028;47.642;8.070;2022-10-31T12:02:51;93959.97;;;18.84;55.31
30216;BME280;17028;47.642;8.070;2022-10-31T12:08:07;93943.16;;;19.13;53.49
30216;BME280;17028;47.642;8.070;2022-10-31T12:13:32;93926.25;;;19.35;52.75
30216;BME280;17028;47.642;8.070;2022-10-31T12:24:18;93891.84;;;19.65;52.10
